sensor_id;sensor_type;location;lat;lon;timestamp;pressure;altitude;pressure_sealevel;temperature;humidity
9077;BME280;4574;51.072;17.174;2023-02-19T00:01:59;99939.22;;;7.92;100.00
9077;BME280;4574;51.072;17.174;2023-02-19T00:04:28;99938.94;;;7.95;100.00
9077;BME280;4574;51.072;17.174;2023-02-19T00:06:56;99938.25;;;7.93;100.00
9077;BME280;4574;51.072;17.174;2023-02-19T00:09:25;99932.97;;;7.93;100.00
9077;BME280;4574;51.072;17.174;2023-02-19T00:11:53;99911.31;;;7.80;100.00
9077;BME280;4574;51.072;17.174;2023-02-19T00:14:22;99926.47;;;7.88;100.00
9077;BME280;4574;51.072;17.174;2023-02-19T00:16:51;99929.81;;;7.90;100.00
9077;BME280;4574;51.072;17.174;2023-02-19T00:19:20;99931.47;;;7.91;100.00
9077;BME280;4574;51.072;17.174;2023-02-19T00:21:50;99934.22;;;7.89;100.00
9077;BME280;4574;51.072;17.174;2023-02-19T00:24:20;99927.44;;;7.87;100.00
9077;BME280;4574;51.072;17.174;2023-02-19T00:26:49;99932.72;;;7.87;100.00
9077;BME280;4574;51.072;17.174;2023-02-19T00:29:19;99928.41;;;7.86;100.00
9077;BME280;4574;51.072;17.174;2023-02-19T00:31:48;99915.34;;;7.84;100.00
9077;BME280;4574;51.072;17.174;2023-02-19T00:34:18;99913.16;;;7.80;100.00
9077;BME280;4574;51.072;17.174;2023-02-19T00:36:46;99914.25;;;7.77;100.00
9077;BME280;4574;51.072;17.174;2023-02-19T00:39:15;99906.59;;;7.74;100.00
9077;BME280;4574;51.072;17.174;2023-02-19T00:41:44;99909.13;;;7.76;100.00
9077;BME280;4574;51.072;17.174;2023-02-19T00:44:13;99900.53;;;7.74;100.00
9077;BME280;4574;51.072;17.174;2023-02-19T00:46:43;99904.94;;;7.73;100.00
9077;BME280;4574;51.072;17.174;2023-02-19T00:49:15;99902.72;;;7.69;100.00
9077;BME280;4574;51.072;17.174;2023-02-19T00:51:46;99898.13;;;7.61;100.00
9077;BME280;4574;51.072;17.174;2023-02-19T00:54:14;99902.44;;;7.62;100.00
9077;BME280;4574;51.072;17.174;2023-02-19T00:56:43;99898.81;;;7.63;100.00
9077;BME280;4574;51.072;17.174;2023-02-19T00:59:11;99899.78;;;7.62;100.00
9077;BME280;4574;51.072;17.174;2023-02-19T01:01:40;99883.13;;;7.62;100.00
9077;BME280;4574;51.072;17.174;2023-02-19T01:04:12;99896.88;;;7.65;100.00
9077;BME280;4574;51.072;17.174;2023-02-19T01:06:42;99902.44;;;7.62;100.00
9077;BME280;4574;51.072;17.174;2023-02-19T01:09:12;99889.25;;;7.62;100.00
9077;BME280;4574;51.072;17.174;2023-02-19T01:11:40;99885.22;;;7.58;100.00
9077;BME280;4574;51.072;17.174;2023-02-19T01:14:09;99881.63;;;7.59;100.00
9077;BME280;4574;51.072;17.174;2023-02-19T01:16:37;99890.22;;;7.61;100.00
9077;BME280;4574;51.072;17.174;2023-02-19T01:19:06;99882.59;;;7.58;100.00
9077;BME280;4574;51.072;17.174;2023-02-19T01:21:34;99886.75;;;7.61;100.00
9077;BME280;4574;51.072;17.174;2023-02-19T01:24:03;99878.31;;;7.57;100.00
9077;BME280;4574;51.072;17.174;2023-02-19T01:26:33;99868.72;;;7.56;100.00
9077;BME280;4574;51.072;17.174;2023-02-19T01:29:01;99868.31;;;7.51;100.00
9077;BME280;4574;51.072;17.174;2023-02-19T01:31:30;99874.53;;;7.50;100.00
9077;BME280;4574;51.072;17.174;2023-02-19T01:34:00;99874.66;;;7.49;100.00
9077;BME280;4574;51.072;17.174;2023-02-19T01:36:32;99869.13;;;7.42;100.00
9077;BME280;4574;51.072;17.174;2023-02-19T01:39:01;99865.53;;;7.43;100.00
9077;BME280;4574;51.072;17.174;2023-02-19T01:41:35;99853.06;;;7.45;100.00
9077;BME280;4574;51.072;17.174;2023-02-19T01:44:06;99861.06;;;7.44;100.00
9077;BME280;4574;51.072;17.174;2023-02-19T01:46:36;99855.00;;;7.43;100.00
9077;BME280;4574;51.072;17.174;2023-02-19T01:49:08;99858.28;;;7.36;100.00
9077;BME280;4574;51.072;17.174;2023-02-19T01:51:41;99853.81;;;7.27;100.00
9077;BME280;4574;51.072;17.174;2023-02-19T01:54:12;99859.63;;;7.21;100.00
9077;BME280;4574;51.072;17.174;2023-02-19T01:56:45;99855.22;;;7.21;100.00
9077;BME280;4574;51.072;17.174;2023-02-19T01:59:15;99846.75;;;7.18;100.00
9077;BME280;4574;51.072;17.174;2023-02-19T02:01:44;99839.97;;;7.15;100.00
9077;BME280;4574;51.072;17.174;2023-02-19T02:04:13;99834.97;;;7.12;100.00
9077;BME280;4574;51.072;17.174;2023-02-19T02:06:47;99836.38;;;7.16;100.00
9077;BME280;4574;51.072;17.174;2023-02-19T02:09:18;99824.72;;;7.19;100.00
9077;BME280;4574;51.072;17.174;2023-02-19T02:12:06;99825.03;;;7.25;100.00
9077;BME280;4574;51.072;17.174;2023-02-19T02:14:39;99818.66;;;7.28;100.00
9077;BME280;4574;51.072;17.174;2023-02-19T02:17:14;99817.56;;;7.30;100.00
9077;BME280;4574;51.072;17.174;2023-02-19T02:20:05;99813.69;;;7.34;100.00
9077;BME280;4574;51.072;17.174;2023-02-19T02:22:43;99817.00;;;7.36;100.00
9077;BME280;4574;51.072;17.174;2023-02-19T02:25:39;99807.44;;;7.35;100.00
9077;BME280;4574;51.072;17.174;2023-02-19T02:28:33;99812.00;;;7.33;100.00
9077;BME280;4574;51.072;17.174;2023-02-19T02:31:08;99812.13;;;7.32;100.00
9077;BME280;4574;51.072;17.174;2023-02-19T02:33:45;99808.53;;;7.33;100.00
9077;BME280;4574;51.072;17.174;2023-02-19T02:36:17;99804.13;;;7.33;100.00
9077;BME280;4574;51.072;17.174;2023-02-19T02:38:48;99799.81;;;7.32;100.00
9077;BME280;4574;51.072;17.174;2023-02-19T02:41:19;99802.03;;;7.37;100.00
9077;BME280;4574;51.072;17.174;2023-02-19T02:43:48;99787.09;;;7.37;100.00
9077;BME280;4574;51.072;17.174;2023-02-19T02:46:21;99792.06;;;7.40;100.00
9077;BME280;4574;51.072;17.174;2023-02-19T02:48:53;99792.06;;;7.40;100.00
9077;BME280;4574;51.072;17.174;2023-02-19T02:51:26;99784.44;;;7.37;100.00
9077;BME280;4574;51.072;17.174;2023-02-19T02:53:57;99788.75;;;7.38;100.00
9077;BME280;4574;51.072;17.174;2023-02-19T02:56:47;99791.38;;;7.38;100.00
9077;BME280;4574;51.072;17.174;2023-02-19T02:59:19;99781.13;;;7.35;100.00
9077;BME280;4574;51.072;17.174;2023-02-19T03:01:52;99774.19;;;7.34;100.00
9077;BME280;4574;51.072;17.174;2023-02-19T03:04:44;99782.09;;;7.34;100.00
9077;BME280;4574;51.072;17.174;2023-02-19T03:07:35;99775.16;;;7.33;100.00
9077;BME280;4574;51.072;17.174;2023-02-19T03:10:07;99773.50;;;7.32;100.00
9077;BME280;4574;51.072;17.174;2023-02-19T03:12:37;99774.47;;;7.31;100.00
9077;BME280;4574;51.072;17.174;2023-02-19T03:15:26;99773.78;;;7.29;100.00
9077;BME280;4574;51.072;17.174;2023-02-19T03:18:17;99770.16;;;7.30;100.00
9077;BME280;4574;51.072;17.174;2023-02-19T03:21:06;99778.75;;;7.32;100.00
9077;BME280;4574;51.072;17.174;2023-02-19T03:23:36;99773.78;;;7.29;100.00
9077;BME280;4574;51.072;17.174;2023-02-19T03:26:23;99771.84;;;7.31;100.00
9077;BME280;4574;51.072;17.174;2023-02-19T03:28:53;99770.16;;;7.30;100.00
9077;BME280;4574;51.072;17.174;2023-02-19T03:31:41;99767.38;;;7.32;100.00
9077;BME280;4574;51.072;17.174;2023-02-19T03:34:17;99766.28;;;7.34;100.00
9077;BME280;4574;51.072;17.174;2023-02-19T03:36:54;99758.50;;;7.33;100.00
9077;BME280;4574;51.072;17.174;2023-02-19T03:39:25;99748.56;;;7.36;100.00
9077;BME280;4574;51.072;17.174;2023-02-19T03:41:59;99739.00;;;7.35;100.00
9077;BME280;4574;51.072;17.174;2023-02-19T03:44:36;99727.78;;;7.33;100.00
9077;BME280;4574;51.072;17.174;2023-02-19T03:47:14;99732.75;;;7.36;100.00
9077;BME280;4574;51.072;17.174;2023-02-19T03:49:48;99736.09;;;7.38;100.00
9077;BME280;4574;51.072;17.174;2023-02-19T03:52:22;99726.25;;;7.40;100.00
9077;BME280;4574;51.072;17.174;2023-02-19T03:54:57;99724.31;;;7.42;100.00
9077;BME280;4574;51.072;17.174;2023-02-19T03:57:35;99721.69;;;7.42;100.00
9077;BME280;4574;51.072;17.174;2023-02-19T04:00:09;99729.56;;;7.42;100.00
9077;BME280;4574;51.072;17.174;2023-02-19T04:02:44;99721.09;;;7.39;100.00
9077;BME280;4574;51.072;17.174;2023-02-19T04:05:19;99747.72;;;7.45;100.00
9077;BME280;4574;51.072;17.174;2023-02-19T04:07:52;99740.81;;;7.44;100.00
9077;BME280;4574;51.072;17.174;2023-02-19T04:10:22;99748.53;;;7.46;100.00
9077;BME280;4574;51.072;17.174;2023-02-19T04:12:54;99728.03;;;7.40;100.00
9077;BME280;4574;51.072;17.174;2023-02-19T04:15:28;99721.94;;;7.39;100.00
9077;BME280;4574;51.072;17.174;2023-02-19T04:17:59;99734.41;;;7.47;100.00
9077;BME280;4574;51.072;17.174;2023-02-19T04:20:34;99731.78;;;7.47;100.00
9077;BME280;4574;51.072;17.174;2023-02-19T04:23:04;99735.25;;;7.47;100.00
9077;BME280;4574;51.072;17.174;2023-02-19T04:25:33;99736.22;;;7.46;100.00
9077;BME280;4574;51.072;17.174;2023-02-19T04:28:03;99735.25;;;7.47;100.00
9077;BME280;4574;51.072;17.174;2023-02-19T04:30:31;99736.91;;;7.48;100.00
9077;BME280;4574;51.072;17.174;2023-02-19T04:33:00;99737.03;;;7.47;100.00
9077;BME280;4574;51.072;17.174;2023-02-19T04:35:28;99733.44;;;7.48;100.00
9077;BME280;4574;51.072;17.174;2023-02-19T04:37:58;99719.44;;;7.47;100.00
9077;BME280;4574;51.072;17.174;2023-02-19T04:40:26;99729.13;;;7.47;100.00
9077;BME280;4574;51.072;17.174;2023-02-19T04:42:55;99730.00;;;7.47;100.00
9077;BME280;4574;51.072;17.174;2023-02-19T04:45:23;99722.91;;;7.48;100.00
9077;BME280;4574;51.072;17.174;2023-02-19T04:47:52;99725.53;;;7.48;100.00
9077;BME280;4574;51.072;17.174;2023-02-19T04:50:20;99716.25;;;7.44;100.00
9077;BME280;4574;51.072;17.174;2023-02-19T04:52:49;99716.41;;;7.42;100.00
9077;BME280;4574;51.072;17.174;2023-02-19T04:55:19;99716.97;;;7.36;100.00
9077;BME280;4574;51.072;17.174;2023-02-19T04:57:47;99717.09;;;7.25;100.00
9077;BME280;4574;51.072;17.174;2023-02-19T05:00:16;99708.34;;;7.25;100.00
9077;BME280;4574;51.072;17.174;2023-02-19T05:02:44;99712.81;;;7.24;100.00
9077;BME280;4574;51.072;17.174;2023-02-19T05:05:12;99701.44;;;7.24;100.00
9077;BME280;4574;51.072;17.174;2023-02-19T05:07:41;99695.47;;;7.22;100.00
9077;BME280;4574;51.072;17.174;2023-02-19T05:10:09;99702.69;;;7.20;100.00
9077;BME280;4574;51.072;17.174;2023-02-19T05:12:39;99702.25;;;7.15;100.00
9077;BME280;4574;51.072;17.174;2023-02-19T05:15:07;99702.56;;;7.21;100.00
9077;BME280;4574;51.072;17.174;2023-02-19T05:17:36;99702.13;;;7.16;100.00
9077;BME280;4574;51.072;17.174;2023-02-19T05:20:05;99695.34;;;7.14;100.00
9077;BME280;4574;51.072;17.174;2023-02-19T05:22:34;99696.31;;;7.13;100.00
9077;BME280;4574;51.072;17.174;2023-02-19T05:25:04;99700.88;;;7.20;100.00
9077;BME280;4574;51.072;17.174;2023-02-19T05:27:32;99693.97;;;7.19;100.00
9077;BME280;4574;51.072;17.174;2023-02-19T05:30:03;99696.19;;;7.14;100.00
9077;BME280;4574;51.072;17.174;2023-02-19T05:32:33;99703.22;;;7.14;100.00
9077;BME280;4574;51.072;17.174;2023-02-19T05:35:02;99704.88;;;7.15;100.00
9077;BME280;4574;51.072;17.174;2023-02-19T05:37:30;99696.72;;;7.18;100.00
9077;BME280;4574;51.072;17.174;2023-02-19T05:39:59;99694.50;;;7.23;100.00
9077;BME280;4574;51.072;17.174;2023-02-19T05:42:27;99697.28;;;7.21;100.00
9077;BME280;4574;51.072;17.174;2023-02-19T05:44:55;99692.31;;;7.18;100.00
9077;BME280;4574;51.072;17.174;2023-02-19T05:47:25;99688.16;;;7.25;100.00
9077;BME280;4574;51.072;17.174;2023-02-19T05:49:54;99689.81;;;7.26;100.00
9077;BME280;4574;51.072;17.174;2023-02-19T05:52:22;99697.13;;;7.23;100.00
9077;BME280;4574;51.072;17.174;2023-02-19T05:54:50;99692.72;;;7.23;100.00
9077;BME280;4574;51.072;17.174;2023-02-19T05:57:19;99698.94;;;7.22;100.00
9077;BME280;4574;51.072;17.174;2023-02-19T05:59:47;99689.78;;;7.17;100.00
9077;BME280;4574;51.072;17.174;2023-02-19T06:02:16;99683.72;;;7.16;100.00
9077;BME280;4574;51.072;17.174;2023-02-19T06:04:46;99680.81;;;7.19;100.00
9077;BME280;4574;51.072;17.174;2023-02-19T06:07:14;99684.41;;;7.18;100.00
9077;BME280;4574;51.072;17.174;2023-02-19T06:09:42;99685.09;;;7.20;100.00
9077;BME280;4574;51.072;17.174;2023-02-19T06:12:11;99687.84;;;7.19;100.00
9077;BME280;4574;51.072;17.174;2023-02-19T06:14:39;99691.59;;;7.16;100.00
9077;BME280;4574;51.072;17.174;2023-02-19T06:17:07;99695.59;;;7.11;100.00
9077;BME280;4574;51.072;17.174;2023-02-19T06:19:36;99695.59;;;7.11;100.00
9077;BME280;4574;51.072;17.174;2023-02-19T06:22:06;99693.94;;;7.10;100.00
9077;BME280;4574;51.072;17.174;2023-02-19T06:24:34;99702.81;;;7.09;100.00
9077;BME280;4574;51.072;17.174;2023-02-19T06:27:04;99700.34;;;7.07;100.00
9077;BME280;4574;51.072;17.174;2023-02-19T06:29:33;99702.53;;;7.02;100.00
9077;BME280;4574;51.072;17.174;2023-02-19T06:32:04;99698.38;;;7.09;100.00
9077;BME280;4574;51.072;17.174;2023-02-19T06:34:33;99711.66;;;7.08;100.00
9077;BME280;4574;51.072;17.174;2023-02-19T06:37:02;99712.50;;;6.99;100.00
9077;BME280;4574;51.072;17.174;2023-02-19T06:39:32;99712.38;;;7.00;100.00
9077;BME280;4574;51.072;17.174;2023-02-19T06:42:00;99707.78;;;6.93;100.00
9077;BME280;4574;51.072;17.174;2023-02-19T06:44:29;99716.38;;;6.95;100.00
9077;BME280;4574;51.072;17.174;2023-02-19T06:46:57;99715.56;;;6.94;100.00
9077;BME280;4574;51.072;17.174;2023-02-19T06:49:26;99710.00;;;6.97;100.00
9077;BME280;4574;51.072;17.174;2023-02-19T06:51:54;99718.59;;;6.99;100.00
9077;BME280;4574;51.072;17.174;2023-02-19T06:54:23;99726.22;;;7.02;100.00
9077;BME280;4574;51.072;17.174;2023-02-19T06:56:53;99725.09;;;6.95;100.00
9077;BME280;4574;51.072;17.174;2023-02-19T06:59:25;99716.38;;;6.95;100.00
9077;BME280;4574;51.072;17.174;2023-02-19T07:01:53;99719.69;;;6.97;100.00
9077;BME280;4574;51.072;17.174;2023-02-19T07:04:21;99725.53;;;7.00;100.00
9077;BME280;4574;51.072;17.174;2023-02-19T07:06:50;99721.63;;;6.95;100.00
9077;BME280;4574;51.072;17.174;2023-02-19T07:09:18;99723.47;;;6.64;100.00
9077;BME280;4574;51.072;17.174;2023-02-19T07:11:47;99731.19;;;6.47;100.00
9077;BME280;4574;51.072;17.174;2023-02-19T07:14:17;99734.44;;;6.30;100.00
9077;BME280;4574;51.072;17.174;2023-02-19T07:16:46;99750.41;;;6.18;100.00
9077;BME280;4574;51.072;17.174;2023-02-19T07:19:15;99737.44;;;6.26;100.00
9077;BME280;4574;51.072;17.174;2023-02-19T07:21:43;99760.22;;;6.46;100.00
9077;BME280;4574;51.072;17.174;2023-02-19T07:24:12;99760.28;;;6.55;100.00
9077;BME280;4574;51.072;17.174;2023-02-19T07:26:40;99767.16;;;6.47;100.00
9077;BME280;4574;51.072;17.174;2023-02-19T07:29:09;99766.88;;;6.50;100.00
9077;BME280;4574;51.072;17.174;2023-02-19T07:31:38;99782.44;;;6.32;100.00
9077;BME280;4574;51.072;17.174;2023-02-19T07:34:07;99777.03;;;6.24;100.00
9077;BME280;4574;51.072;17.174;2023-02-19T07:36:35;99785.94;;;5.92;100.00
9077;BME280;4574;51.072;17.174;2023-02-19T07:39:04;99791.53;;;5.98;100.00
9077;BME280;4574;51.072;17.174;2023-02-19T07:41:35;99795.31;;;6.05;100.00
9077;BME280;4574;51.072;17.174;2023-02-19T07:44:04;99800.75;;;6.13;100.00
9077;BME280;4574;51.072;17.174;2023-02-19T07:46:32;99802.72;;;5.80;100.00
9077;BME280;4574;51.072;17.174;2023-02-19T07:49:02;99795.47;;;5.61;100.00
9077;BME280;4574;51.072;17.174;2023-02-19T07:51:33;99802.03;;;5.67;100.00
9077;BME280;4574;51.072;17.174;2023-02-19T07:54:01;99820.25;;;5.68;100.00
9077;BME280;4574;51.072;17.174;2023-02-19T07:56:29;99821.16;;;5.58;100.00
9077;BME280;4574;51.072;17.174;2023-02-19T07:58:59;99825.00;;;5.54;100.00
9077;BME280;4574;51.072;17.174;2023-02-19T08:01:27;99838.13;;;5.54;100.00
9077;BME280;4574;51.072;17.174;2023-02-19T08:04:12;99846.75;;;5.34;100.00
9077;BME280;4574;51.072;17.174;2023-02-19T08:06:41;99850.28;;;5.55;100.00
9077;BME280;4574;51.072;17.174;2023-02-19T08:09:10;99857.94;;;5.47;100.00
9077;BME280;4574;51.072;17.174;2023-02-19T08:11:38;99852.50;;;5.06;100.00
9077;BME280;4574;51.072;17.174;2023-02-19T08:14:24;99855.38;;;4.92;100.00
9077;BME280;4574;51.072;17.174;2023-02-19T08:16:53;99864.47;;;5.10;100.00
9077;BME280;4574;51.072;17.174;2023-02-19T08:19:23;99862.31;;;5.15;100.00
9077;BME280;4574;51.072;17.174;2023-02-19T08:21:51;99865.63;;;4.95;100.00
9077;BME280;4574;51.072;17.174;2023-02-19T08:24:20;99874.22;;;4.97;100.00
9077;BME280;4574;51.072;17.174;2023-02-19T08:26:49;99877.44;;;5.01;100.00
9077;BME280;4574;51.072;17.174;2023-02-19T08:29:17;99874.34;;;4.74;100.00
9077;BME280;4574;51.072;17.174;2023-02-19T08:31:46;99890.31;;;4.82;100.00
9077;BME280;4574;51.072;17.174;2023-02-19T08:34:15;99906.16;;;4.69;100.00
9077;BME280;4574;51.072;17.174;2023-02-19T08:36:45;99900.44;;;4.75;100.00
9077;BME280;4574;51.072;17.174;2023-02-19T08:39:13;99902.81;;;4.67;100.00
9077;BME280;4574;51.072;17.174;2023-02-19T08:41:42;99906.53;;;4.65;100.00
9077;BME280;4574;51.072;17.174;2023-02-19T08:44:10;99915.22;;;4.76;100.00
9077;BME280;4574;51.072;17.174;2023-02-19T08:46:39;99914.25;;;4.66;100.00
9077;BME280;4574;51.072;17.174;2023-02-19T08:49:07;99913.50;;;4.42;100.00
9077;BME280;4574;51.072;17.174;2023-02-19T08:51:35;99923.19;;;4.53;100.00
9077;BME280;4574;51.072;17.174;2023-02-19T08:54:08;99917.81;;;4.54;100.00
9077;BME280;4574;51.072;17.174;2023-02-19T08:56:37;99930.69;;;4.68;100.00
9077;BME280;4574;51.072;17.174;2023-02-19T08:59:05;99932.63;;;4.77;100.00
9077;BME280;4574;51.072;17.174;2023-02-19T09:01:34;99927.63;;;4.85;100.00
9077;BME280;4574;51.072;17.174;2023-02-19T09:04:02;99927.38;;;4.99;100.00
9077;BME280;4574;51.072;17.174;2023-02-19T09:06:31;99932.88;;;5.07;100.00
9077;BME280;4574;51.072;17.174;2023-02-19T09:09:00;99943.84;;;4.90;100.00
9077;BME280;4574;51.072;17.174;2023-02-19T09:11:29;99945.00;;;4.64;100.00
9077;BME280;4574;51.072;17.174;2023-02-19T09:13:58;99948.81;;;4.71;100.00
9077;BME280;4574;51.072;17.174;2023-02-19T09:16:28;99953.09;;;4.72;100.00
9077;BME280;4574;51.072;17.174;2023-02-19T09:18:56;99949.91;;;4.69;100.00
9077;BME280;4574;51.072;17.174;2023-02-19T09:21:25;99954.53;;;4.76;100.00
9077;BME280;4574;51.072;17.174;2023-02-19T09:23:53;99965.75;;;4.89;100.00
9077;BME280;4574;51.072;17.174;2023-02-19T09:26:21;99962.88;;;4.81;100.00
9077;BME280;4574;51.072;17.174;2023-02-19T09:28:53;99973.38;;;4.81;100.00
9077;BME280;4574;51.072;17.174;2023-02-19T09:31:21;99975.91;;;4.83;100.00
9077;BME280;4574;51.072;17.174;2023-02-19T09:33:50;99984.13;;;4.89;100.00
9077;BME280;4574;51.072;17.174;2023-02-19T09:36:19;99991.16;;;4.89;100.00
9077;BME280;4574;51.072;17.174;2023-02-19T09:38:47;99982.69;;;4.96;100.00
9077;BME280;4574;51.072;17.174;2023-02-19T09:41:21;99995.72;;;4.98;100.00
9077;BME280;4574;51.072;17.174;2023-02-19T09:43:53;99998.91;;;5.01;100.00
9077;BME280;4574;51.072;17.174;2023-02-19T09:46:25;99995.34;;;5.02;100.00
9077;BME280;4574;51.072;17.174;2023-02-19T09:49:01;99997.50;;;5.08;100.00
9077;BME280;4574;51.072;17.174;2023-02-19T09:51:33;100007.03;;;5.09;100.00
9077;BME280;4574;51.072;17.174;2023-02-19T09:54:06;100001.53;;;5.01;100.00
9077;BME280;4574;51.072;17.174;2023-02-19T09:56:35;100002.00;;;4.95;100.00
9077;BME280;4574;51.072;17.174;2023-02-19T09:59:05;99997.16;;;5.02;100.00
9077;BME280;4574;51.072;17.174;2023-02-19T10:01:38;100009.88;;;4.95;100.00
9077;BME280;4574;51.072;17.174;2023-02-19T10:04:09;100010.84;;;5.05;100.00
9077;BME280;4574;51.072;17.174;2023-02-19T10:06:37;100016.13;;;5.16;100.00
9077;BME280;4574;51.072;17.174;2023-02-19T10:09:15;100024.84;;;5.27;100.00
9077;BME280;4574;51.072;17.174;2023-02-19T10:11:47;100031.03;;;5.16;100.00
9077;BME280;4574;51.072;17.174;2023-02-19T10:14:20;100039.63;;;5.18;100.00
9077;BME280;4574;51.072;17.174;2023-02-19T10:16:51;100040.00;;;5.24;100.00
9077;BME280;4574;51.072;17.174;2023-02-19T10:19:20;100045.47;;;5.21;100.00
9077;BME280;4574;51.072;17.174;2023-02-19T10:21:49;100051.78;;;5.19;100.00
9077;BME280;4574;51.072;17.174;2023-02-19T10:24:20;100057.75;;;5.21;100.00
9077;BME280;4574;51.072;17.174;2023-02-19T10:26:50;100054.31;;;5.20;100.00
9077;BME280;4574;51.072;17.174;2023-02-19T10:29:20;100070.28;;;5.17;100.00
9077;BME280;4574;51.072;17.174;2023-02-19T10:32:11;100068.38;;;5.19;100.00
9077;BME280;4574;51.072;17.174;2023-02-19T10:34:40;100075.28;;;5.20;100.00
9077;BME280;4574;51.072;17.174;2023-02-19T10:37:11;100073.63;;;5.19;100.00
9077;BME280;4574;51.072;17.174;2023-02-19T10:39:43;100081.25;;;5.22;100.00
9077;BME280;4574;51.072;17.174;2023-02-19T10:42:22;100093.44;;;5.34;100.00
9077;BME280;4574;51.072;17.174;2023-02-19T10:44:56;100078.91;;;5.41;100.00
9077;BME280;4574;51.072;17.174;2023-02-19T10:47:29;100089.88;;;5.35;100.00
9077;BME280;4574;51.072;17.174;2023-02-19T10:49:59;100098.78;;;5.32;100.00
9077;BME280;4574;51.072;17.174;2023-02-19T10:52:31;100089.88;;;5.35;100.00
9077;BME280;4574;51.072;17.174;2023-02-19T10:55:15;100096.41;;;5.29;100.00
9077;BME280;4574;51.072;17.174;2023-02-19T10:57:48;100094.38;;;5.22;100.00
9077;BME280;4574;51.072;17.174;2023-02-19T11:00:23;100104.19;;;5.31;100.00
9077;BME280;4574;51.072;17.174;2023-02-19T11:03:18;100104.41;;;5.28;100.00
9077;BME280;4574;51.072;17.174;2023-02-19T11:05:53;100117.75;;;5.25;100.00
9077;BME280;4574;51.072;17.174;2023-02-19T11:08:24;100122.06;;;5.26;100.00
9077;BME280;4574;51.072;17.174;2023-02-19T11:10:53;100122.66;;;5.29;100.00
9077;BME280;4574;51.072;17.174;2023-02-19T11:13:27;100116.94;;;5.35;100.00
9077;BME280;4574;51.072;17.174;2023-02-19T11:15:59;100127.91;;;5.40;100.00
9077;BME280;4574;51.072;17.174;2023-02-19T11:18:30;100128.38;;;5.34;100.00
9077;BME280;4574;51.072;17.174;2023-02-19T11:21:00;100132.22;;;5.41;100.00
9077;BME280;4574;51.072;17.174;2023-02-19T11:23:31;100134.50;;;5.46;100.00
9077;BME280;4574;51.072;17.174;2023-02-19T11:26:03;100135.44;;;5.45;100.00
9077;BME280;4574;51.072;17.174;2023-02-19T11:28:35;100130.94;;;5.47;100.00
9077;BME280;4574;51.072;17.174;2023-02-19T11:31:23;100135.44;;;5.45;100.00
9077;BME280;4574;51.072;17.174;2023-02-19T11:33:55;100131.16;;;5.44;100.00
9077;BME280;4574;51.072;17.174;2023-02-19T11:36:29;100137.69;;;5.38;100.00
9077;BME280;4574;51.072;17.174;2023-02-19T11:39:02;100130.53;;;5.40;100.00
9077;BME280;4574;51.072;17.174;2023-02-19T11:42:02;100138.53;;;5.39;100.00
9077;BME280;4574;51.072;17.174;2023-02-19T11:44:44;100137.56;;;5.29;100.00
9077;BME280;4574;51.072;17.174;2023-02-19T11:50:17;100139.47;;;5.27;100.00
9077;BME280;4574;51.072;17.174;2023-02-19T11:52:56;100137.34;;;5.32;100.00
9077;BME280;4574;51.072;17.174;2023-02-19T11:55:36;100134.00;;;5.30;100.00
9077;BME280;4574;51.072;17.174;2023-02-19T11:58:22;100140.22;;;5.40;100.00
9077;BME280;4574;51.072;17.174;2023-02-19T12:01:03;100141.44;;;5.58;100.00
9077;BME280;4574;51.072;17.174;2023-02-19T12:04:01;100142.66;;;5.76;100.00
9077;BME280;4574;51.072;17.174;2023-02-19T12:06:43;100132.78;;;6.01;100.00
9077;BME280;4574;51.072;17.174;2023-02-19T12:09:27;100108.16;;;6.24;100.00
9077;BME280;4574;51.072;17.174;2023-02-19T12:12:13;100137.00;;;6.57;100.00
9077;BME280;4574;51.072;17.174;2023-02-19T12:15:04;100149.75;;;6.61;100.00
9077;BME280;4574;51.072;17.174;2023-02-19T12:17:48;100147.16;;;6.51;100.00
9077;BME280;4574;51.072;17.174;2023-02-19T12:20:25;100156.03;;;6.28;100.00
9077;BME280;4574;51.072;17.174;2023-02-19T12:23:12;100169.09;;;6.07;100.00
9077;BME280;4574;51.072;17.174;2023-02-19T12:25:52;100150.41;;;5.77;100.00
9077;BME280;4574;51.072;17.174;2023-02-19T12:28:42;100170.72;;;5.86;100.00
9077;BME280;4574;51.072;17.174;2023-02-19T12:31:33;100187.13;;;6.01;100.00
9077;BME280;4574;51.072;17.174;2023-02-19T12:34:21;100169.66;;;6.33;100.00
9077;BME280;4574;51.072;17.174;2023-02-19T12:37:08;100182.22;;;6.29;100.00
9077;BME280;4574;51.072;17.174;2023-02-19T12:39:45;100192.38;;;6.12;100.00
9077;BME280;4574;51.072;17.174;2023-02-19T12:42:23;100186.78;;;6.05;100.00
9077;BME280;4574;51.072;17.174;2023-02-19T12:44:57;100190.47;;;6.03;100.00
9077;BME280;4574;51.072;17.174;2023-02-19T12:47:30;100184.09;;;5.94;100.00
9077;BME280;4574;51.072;17.174;2023-02-19T12:50:05;100200.56;;;5.85;100.00
9077;BME280;4574;51.072;17.174;2023-02-19T12:52:43;100204.06;;;5.86;100.00
9077;BME280;4574;51.072;17.174;2023-02-19T12:55:20;100214.19;;;5.90;100.00
9077;BME280;4574;51.072;17.174;2023-02-19T12:57:50;100213.38;;;5.90;100.00
9077;BME280;4574;51.072;17.174;2023-02-19T13:00:28;100216.25;;;5.87;100.00
9077;BME280;4574;51.072;17.174;2023-02-19T13:03:01;100215.06;;;6.13;100.00
9077;BME280;4574;51.072;17.174;2023-02-19T13:05:39;100233.13;;;6.39;100.00
9077;BME280;4574;51.072;17.174;2023-02-19T13:08:15;100228.19;;;6.13;100.00
9077;BME280;4574;51.072;17.174;2023-02-19T13:10:49;100245.28;;;6.07;100.00
9077;BME280;4574;51.072;17.174;2023-02-19T13:13:22;100237.03;;;6.01;100.00
9077;BME280;4574;51.072;17.174;2023-02-19T13:15:55;100235.28;;;6.34;100.00
9077;BME280;4574;51.072;17.174;2023-02-19T13:18:29;100253.91;;;6.20;100.00
9077;BME280;4574;51.072;17.174;2023-02-19T13:21:00;100237.97;;;6.00;100.00
9077;BME280;4574;51.072;17.174;2023-02-19T13:23:32;100244.66;;;5.93;100.00
9077;BME280;4574;51.072;17.174;2023-02-19T13:26:41;100253.66;;;6.01;100.00
9077;BME280;4574;51.072;17.174;2023-02-19T13:29:22;100257.34;;;6.10;100.00
9077;BME280;4574;51.072;17.174;2023-02-19T13:32:15;100247.06;;;6.07;100.00
9077;BME280;4574;51.072;17.174;2023-02-19T13:34:58;100256.88;;;6.16;100.00
9077;BME280;4574;51.072;17.174;2023-02-19T13:37:31;100250.56;;;6.29;100.00
9077;BME280;4574;51.072;17.174;2023-02-19T13:40:18;100254.25;;;6.38;100.00